sensor_id;sensor_type;location;lat;lon;timestamp;temperature;humidity
48551;DHT22;34397;51.176;6.738;2023-04-05T00:01:52;6.00;50.70
48551;DHT22;34397;51.176;6.738;2023-04-05T00:04:24;6.00;50.60
48551;DHT22;34397;51.176;6.738;2023-04-05T00:06:57;6.00;49.50
48551;DHT22;34397;51.176;6.738;2023-04-05T00:09:31;5.90;50.60
48551;DHT22;34397;51.176;6.738;2023-04-05T00:12:04;5.90;50.70
48551;DHT22;34397;51.176;6.738;2023-04-05T00:14:37;5.80;50.70
48551;DHT22;34397;51.176;6.738;2023-04-05T00:17:09;5.80;49.90
48551;DHT22;34397;51.176;6.738;2023-04-05T00:19:41;5.70;50.60
48551;DHT22;34397;51.176;6.738;2023-04-05T00:22:14;5.60;50.70
48551;DHT22;34397;51.176;6.738;2023-04-05T00:24:49;5.50;50.80
48551;DHT22;34397;51.176;6.738;2023-04-05T00:27:21;5.40;51.00
48551;DHT22;34397;51.176;6.738;2023-04-05T00:29:54;5.40;51.30
48551;DHT22;34397;51.176;6.738;2023-04-05T00:32:26;5.30;51.70
48551;DHT22;34397;51.176;6.738;2023-04-05T00:34:58;5.30;52.10
48551;DHT22;34397;51.176;6.738;2023-04-05T00:37:29;5.30;52.20
48551;DHT22;34397;51.176;6.738;2023-04-05T00:40:01;5.30;52.30
48551;DHT22;34397;51.176;6.738;2023-04-05T00:42:34;5.30;52.10
48551;DHT22;34397;51.176;6.738;2023-04-05T00:45:08;5.30;52.30
48551;DHT22;34397;51.176;6.738;2023-04-05T00:47:41;5.20;52.40
48551;DHT22;34397;51.176;6.738;2023-04-05T00:50:13;5.20;52.60
48551;DHT22;34397;51.176;6.738;2023-04-05T00:52:46;5.20;52.60
48551;DHT22;34397;51.176;6.738;2023-04-05T00:55:19;5.20;52.60
48551;DHT22;34397;51.176;6.738;2023-04-05T00:57:52;5.20;52.60
48551;DHT22;34397;51.176;6.738;2023-04-05T01:00:27;5.10;52.90
48551;DHT22;34397;51.176;6.738;2023-04-05T01:03:01;5.10;53.00
48551;DHT22;34397;51.176;6.738;2023-04-05T01:05:39;5.10;52.90
48551;DHT22;34397;51.176;6.738;2023-04-05T01:08:16;5.10;53.10
48551;DHT22;34397;51.176;6.738;2023-04-05T01:10:53;5.00;53.10
48551;DHT22;34397;51.176;6.738;2023-04-05T01:13:27;5.10;53.30
48551;DHT22;34397;51.176;6.738;2023-04-05T01:16:01;5.10;53.50
48551;DHT22;34397;51.176;6.738;2023-04-05T01:18:33;5.10;53.70
48551;DHT22;34397;51.176;6.738;2023-04-05T01:24:37;5.10;53.00
48551;DHT22;34397;51.176;6.738;2023-04-05T01:27:23;5.10;52.90
48551;DHT22;34397;51.176;6.738;2023-04-05T01:30:07;5.10;53.10
48551;DHT22;34397;51.176;6.738;2023-04-05T01:32:47;5.20;53.20
48551;DHT22;34397;51.176;6.738;2023-04-05T01:35:29;5.10;53.10
48551;DHT22;34397;51.176;6.738;2023-04-05T01:38:11;5.20;53.40
48551;DHT22;34397;51.176;6.738;2023-04-05T01:40:46;5.20;53.50
48551;DHT22;34397;51.176;6.738;2023-04-05T01:43:18;5.20;53.60
48551;DHT22;34397;51.176;6.738;2023-04-05T01:45:51;5.20;53.70
48551;DHT22;34397;51.176;6.738;2023-04-05T01:48:23;5.20;53.50
48551;DHT22;34397;51.176;6.738;2023-04-05T01:50:55;5.20;53.40
48551;DHT22;34397;51.176;6.738;2023-04-05T01:53:27;5.30;53.50
48551;DHT22;34397;51.176;6.738;2023-04-05T01:55:59;5.20;53.70
48551;DHT22;34397;51.176;6.738;2023-04-05T01:58:31;5.30;53.20
48551;DHT22;34397;51.176;6.738;2023-04-05T02:01:05;5.30;53.20
48551;DHT22;34397;51.176;6.738;2023-04-05T02:03:36;5.30;53.30
48551;DHT22;34397;51.176;6.738;2023-04-05T02:06:08;5.30;53.40
48551;DHT22;34397;51.176;6.738;2023-04-05T02:08:40;5.30;53.40
48551;DHT22;34397;51.176;6.738;2023-04-05T02:11:12;5.30;53.60
48551;DHT22;34397;51.176;6.738;2023-04-05T02:13:43;5.30;53.70
48551;DHT22;34397;51.176;6.738;2023-04-05T02:16:17;5.30;53.70
48551;DHT22;34397;51.176;6.738;2023-04-05T02:18:48;5.40;53.60
48551;DHT22;34397;51.176;6.738;2023-04-05T02:21:20;5.30;53.40
48551;DHT22;34397;51.176;6.738;2023-04-05T02:23:52;5.30;53.10
48551;DHT22;34397;51.176;6.738;2023-04-05T02:26:24;5.30;53.00
48551;DHT22;34397;51.176;6.738;2023-04-05T02:28:56;5.30;53.20
48551;DHT22;34397;51.176;6.738;2023-04-05T02:31:30;5.20;53.40
48551;DHT22;34397;51.176;6.738;2023-04-05T02:34:03;5.20;53.60
48551;DHT22;34397;51.176;6.738;2023-04-05T02:36:35;5.20;53.70
48551;DHT22;34397;51.176;6.738;2023-04-05T02:39:06;5.20;53.90
48551;DHT22;34397;51.176;6.738;2023-04-05T02:41:38;5.20;54.00
48551;DHT22;34397;51.176;6.738;2023-04-05T02:44:11;5.10;53.80
48551;DHT22;34397;51.176;6.738;2023-04-05T02:46:44;5.10;53.50
48551;DHT22;34397;51.176;6.738;2023-04-05T02:49:16;5.10;53.60
48551;DHT22;34397;51.176;6.738;2023-04-05T02:51:48;5.10;53.70
48551;DHT22;34397;51.176;6.738;2023-04-05T02:54:20;5.00;53.50
48551;DHT22;34397;51.176;6.738;2023-04-05T02:56:52;5.00;53.50
48551;DHT22;34397;51.176;6.738;2023-04-05T02:59:27;5.00;53.60
48551;DHT22;34397;51.176;6.738;2023-04-05T03:02:00;5.00;53.90
48551;DHT22;34397;51.176;6.738;2023-04-05T03:04:32;4.90;53.80
48551;DHT22;34397;51.176;6.738;2023-04-05T03:07:04;4.90;54.00
48551;DHT22;34397;51.176;6.738;2023-04-05T03:09:37;4.90;54.00
48551;DHT22;34397;51.176;6.738;2023-04-05T03:12:09;4.80;54.10
48551;DHT22;34397;51.176;6.738;2023-04-05T03:14:40;4.80;54.10
48551;DHT22;34397;51.176;6.738;2023-04-05T03:17:13;4.70;54.00
48551;DHT22;34397;51.176;6.738;2023-04-05T03:19:45;4.70;54.00
48551;DHT22;34397;51.176;6.738;2023-04-05T03:22:17;4.70;54.10
48551;DHT22;34397;51.176;6.738;2023-04-05T03:24:49;4.60;54.10
48551;DHT22;34397;51.176;6.738;2023-04-05T03:27:22;4.60;54.30
48551;DHT22;34397;51.176;6.738;2023-04-05T03:29:54;4.50;54.30
48551;DHT22;34397;51.176;6.738;2023-04-05T03:32:27;4.50;54.50
48551;DHT22;34397;51.176;6.738;2023-04-05T03:34:59;4.50;54.60
48551;DHT22;34397;51.176;6.738;2023-04-05T03:37:30;4.50;54.80
48551;DHT22;34397;51.176;6.738;2023-04-05T03:40:03;4.40;54.70
48551;DHT22;34397;51.176;6.738;2023-04-05T03:42:36;4.40;54.80
48551;DHT22;34397;51.176;6.738;2023-04-05T03:45:08;4.40;55.00
48551;DHT22;34397;51.176;6.738;2023-04-05T03:47:42;4.40;55.10
48551;DHT22;34397;51.176;6.738;2023-04-05T03:50:14;4.30;54.80
48551;DHT22;34397;51.176;6.738;2023-04-05T03:52:46;4.30;54.90
48551;DHT22;34397;51.176;6.738;2023-04-05T03:55:18;4.30;55.10
48551;DHT22;34397;51.176;6.738;2023-04-05T03:57:50;4.20;55.10
48551;DHT22;34397;51.176;6.738;2023-04-05T04:00:23;4.20;55.50
48551;DHT22;34397;51.176;6.738;2023-04-05T04:02:56;4.10;54.90
48551;DHT22;34397;51.176;6.738;2023-04-05T04:05:28;4.10;55.20
48551;DHT22;34397;51.176;6.738;2023-04-05T04:08:00;4.10;55.50
48551;DHT22;34397;51.176;6.738;2023-04-05T04:10:33;4.00;55.60
48551;DHT22;34397;51.176;6.738;2023-04-05T04:13:05;4.00;55.50
48551;DHT22;34397;51.176;6.738;2023-04-05T04:15:37;4.00;55.70
48551;DHT22;34397;51.176;6.738;2023-04-05T04:18:10;4.00;55.70
48551;DHT22;34397;51.176;6.738;2023-04-05T04:20:42;3.90;56.00
48551;DHT22;34397;51.176;6.738;2023-04-05T04:23:14;3.90;56.00
48551;DHT22;34397;51.176;6.738;2023-04-05T04:25:49;3.90;56.20
48551;DHT22;34397;51.176;6.738;2023-04-05T04:28:24;3.90;56.20
48551;DHT22;34397;51.176;6.738;2023-04-05T04:30:57;3.80;56.10
48551;DHT22;34397;51.176;6.738;2023-04-05T04:33:35;3.80;56.40
48551;DHT22;34397;51.176;6.738;2023-04-05T04:36:08;3.80;56.50
48551;DHT22;34397;51.176;6.738;2023-04-05T04:38:43;3.70;56.70
48551;DHT22;34397;51.176;6.738;2023-04-05T04:41:14;3.70;56.80
48551;DHT22;34397;51.176;6.738;2023-04-05T04:43:47;3.70;56.70
48551;DHT22;34397;51.176;6.738;2023-04-05T04:46:18;3.70;56.80
48551;DHT22;34397;51.176;6.738;2023-04-05T04:48:52;3.70;56.90
48551;DHT22;34397;51.176;6.738;2023-04-05T04:51:23;3.70;57.10
48551;DHT22;34397;51.176;6.738;2023-04-05T04:53:56;3.70;57.20
48551;DHT22;34397;51.176;6.738;2023-04-05T04:56:28;3.60;57.20
48551;DHT22;34397;51.176;6.738;2023-04-05T04:59:00;3.60;57.30
48551;DHT22;34397;51.176;6.738;2023-04-05T05:01:33;3.60;57.30
48551;DHT22;34397;51.176;6.738;2023-04-05T05:04:08;3.60;57.30
48551;DHT22;34397;51.176;6.738;2023-04-05T05:06:40;3.60;57.50
48551;DHT22;34397;51.176;6.738;2023-04-05T05:09:12;3.60;57.50
48551;DHT22;34397;51.176;6.738;2023-04-05T05:11:44;3.50;57.60
48551;DHT22;34397;51.176;6.738;2023-04-05T05:14:15;3.50;57.70
48551;DHT22;34397;51.176;6.738;2023-04-05T05:16:47;3.50;57.70
48551;DHT22;34397;51.176;6.738;2023-04-05T05:19:20;3.50;57.90
48551;DHT22;34397;51.176;6.738;2023-04-05T05:21:52;3.50;57.80
48551;DHT22;34397;51.176;6.738;2023-04-05T05:24:24;3.50;58.00
48551;DHT22;34397;51.176;6.738;2023-04-05T05:26:57;3.50;58.00
48551;DHT22;34397;51.176;6.738;2023-04-05T05:29:29;3.50;58.20
48551;DHT22;34397;51.176;6.738;2023-04-05T05:32:01;3.50;58.20
48551;DHT22;34397;51.176;6.738;2023-04-05T05:34:34;3.50;58.20
48551;DHT22;34397;51.176;6.738;2023-04-05T05:37:06;3.50;58.20
48551;DHT22;34397;51.176;6.738;2023-04-05T05:39:38;3.50;58.20
48551;DHT22;34397;51.176;6.738;2023-04-05T05:42:10;3.50;57.40
48551;DHT22;34397;51.176;6.738;2023-04-05T05:44:42;3.50;58.10
48551;DHT22;34397;51.176;6.738;2023-04-05T05:47:14;3.50;58.40
48551;DHT22;34397;51.176;6.738;2023-04-05T05:49:47;3.60;58.60
48551;DHT22;34397;51.176;6.738;2023-04-05T05:52:19;3.60;59.00
48551;DHT22;34397;51.176;6.738;2023-04-05T05:54:51;3.60;58.90
48551;DHT22;34397;51.176;6.738;2023-04-05T05:57:23;3.60;58.90
48551;DHT22;34397;51.176;6.738;2023-04-05T05:59:55;3.70;59.00
48551;DHT22;34397;51.176;6.738;2023-04-05T06:02:26;3.70;58.90
48551;DHT22;34397;51.176;6.738;2023-04-05T06:05:00;3.80;59.00
48551;DHT22;34397;51.176;6.738;2023-04-05T06:07:35;3.80;58.90
48551;DHT22;34397;51.176;6.738;2023-04-05T06:10:08;3.90;58.80
48551;DHT22;34397;51.176;6.738;2023-04-05T06:12:41;4.00;58.70
48551;DHT22;34397;51.176;6.738;2023-04-05T06:15:13;4.00;58.70
48551;DHT22;34397;51.176;6.738;2023-04-05T06:17:45;4.10;58.40
48551;DHT22;34397;51.176;6.738;2023-04-05T06:20:18;4.10;58.00
48551;DHT22;34397;51.176;6.738;2023-04-05T06:22:50;4.20;57.50
48551;DHT22;34397;51.176;6.738;2023-04-05T06:25:21;4.30;57.50
48551;DHT22;34397;51.176;6.738;2023-04-05T06:27:53;4.30;57.30
48551;DHT22;34397;51.176;6.738;2023-04-05T06:30:25;4.40;57.30
48551;DHT22;34397;51.176;6.738;2023-04-05T06:32:57;4.40;57.10
48551;DHT22;34397;51.176;6.738;2023-04-05T06:35:31;4.50;57.00
48551;DHT22;34397;51.176;6.738;2023-04-05T06:38:03;4.50;56.50
48551;DHT22;34397;51.176;6.738;2023-04-05T06:40:34;4.60;56.70
48551;DHT22;34397;51.176;6.738;2023-04-05T06:43:07;4.60;55.90
48551;DHT22;34397;51.176;6.738;2023-04-05T06:45:40;4.70;55.80
48551;DHT22;34397;51.176;6.738;2023-04-05T06:48:13;4.70;56.00
48551;DHT22;34397;51.176;6.738;2023-04-05T06:50:46;4.70;55.90
48551;DHT22;34397;51.176;6.738;2023-04-05T06:53:18;4.80;55.90
48551;DHT22;34397;51.176;6.738;2023-04-05T06:55:50;4.80;55.50
48551;DHT22;34397;51.176;6.738;2023-04-05T06:58:22;4.90;55.30
48551;DHT22;34397;51.176;6.738;2023-04-05T07:00:54;4.90;55.10
48551;DHT22;34397;51.176;6.738;2023-04-05T07:03:26;4.90;54.90
48551;DHT22;34397;51.176;6.738;2023-04-05T07:06:00;5.00;54.70
48551;DHT22;34397;51.176;6.738;2023-04-05T07:08:32;5.00;54.10
48551;DHT22;34397;51.176;6.738;2023-04-05T07:11:04;5.00;54.40
48551;DHT22;34397;51.176;6.738;2023-04-05T07:13:36;5.10;54.50
48551;DHT22;34397;51.176;6.738;2023-04-05T07:16:08;5.10;54.20
48551;DHT22;34397;51.176;6.738;2023-04-05T07:18:39;5.10;53.30
48551;DHT22;34397;51.176;6.738;2023-04-05T07:21:13;5.10;53.80
48551;DHT22;34397;51.176;6.738;2023-04-05T07:23:45;5.10;53.50
48551;DHT22;34397;51.176;6.738;2023-04-05T07:26:17;5.20;53.70
48551;DHT22;34397;51.176;6.738;2023-04-05T07:28:49;5.20;53.00
48551;DHT22;34397;51.176;6.738;2023-04-05T07:31:21;5.20;53.50
48551;DHT22;34397;51.176;6.738;2023-04-05T07:33:53;5.30;53.50
48551;DHT22;34397;51.176;6.738;2023-04-05T07:36:26;5.30;53.00
48551;DHT22;34397;51.176;6.738;2023-04-05T07:39:00;5.30;51.70
48551;DHT22;34397;51.176;6.738;2023-04-05T07:41:32;5.30;53.20
48551;DHT22;34397;51.176;6.738;2023-04-05T07:44:04;5.30;53.00
48551;DHT22;34397;51.176;6.738;2023-04-05T07:46:36;5.30;52.90
48551;DHT22;34397;51.176;6.738;2023-04-05T07:49:08;5.40;53.10
48551;DHT22;34397;51.176;6.738;2023-04-05T07:51:41;5.40;52.90
48551;DHT22;34397;51.176;6.738;2023-04-05T07:54:13;5.50;52.60
48551;DHT22;34397;51.176;6.738;2023-04-05T07:56:45;5.50;52.60
48551;DHT22;34397;51.176;6.738;2023-04-05T07:59:18;5.50;52.40
48551;DHT22;34397;51.176;6.738;2023-04-05T08:01:51;5.60;52.20
48551;DHT22;34397;51.176;6.738;2023-04-05T08:04:23;5.60;52.10
48551;DHT22;34397;51.176;6.738;2023-04-05T08:06:57;5.60;52.20
48551;DHT22;34397;51.176;6.738;2023-04-05T08:09:28;5.70;52.00
48551;DHT22;34397;51.176;6.738;2023-04-05T08:12:00;5.70;51.80
48551;DHT22;34397;51.176;6.738;2023-04-05T08:14:33;5.70;51.70
48551;DHT22;34397;51.176;6.738;2023-04-05T08:17:05;5.70;51.80
48551;DHT22;34397;51.176;6.738;2023-04-05T08:19:36;5.80;51.40
48551;DHT22;34397;51.176;6.738;2023-04-05T08:22:09;5.80;51.40
48551;DHT22;34397;51.176;6.738;2023-04-05T08:24:42;5.80;51.20
48551;DHT22;34397;51.176;6.738;2023-04-05T08:27:13;5.90;51.40
48551;DHT22;34397;51.176;6.738;2023-04-05T08:29:46;5.80;50.60
48551;DHT22;34397;51.176;6.738;2023-04-05T08:32:18;5.90;51.40
48551;DHT22;34397;51.176;6.738;2023-04-05T08:34:49;5.90;51.20
48551;DHT22;34397;51.176;6.738;2023-04-05T08:37:23;6.00;51.40
48551;DHT22;34397;51.176;6.738;2023-04-05T08:39:54;6.00;50.90
48551;DHT22;34397;51.176;6.738;2023-04-05T08:42:31;6.00;51.00
48551;DHT22;34397;51.176;6.738;2023-04-05T08:45:08;6.10;50.90
48551;DHT22;34397;51.176;6.738;2023-04-05T08:47:41;6.10;50.80
48551;DHT22;34397;51.176;6.738;2023-04-05T08:50:13;6.10;50.70
48551;DHT22;34397;51.176;6.738;2023-04-05T08:52:46;6.20;50.90
48551;DHT22;34397;51.176;6.738;2023-04-05T08:55:20;6.20;51.20
48551;DHT22;34397;51.176;6.738;2023-04-05T08:57:53;6.30;50.50
48551;DHT22;34397;51.176;6.738;2023-04-05T09:00:28;6.40;50.80
48551;DHT22;34397;51.176;6.738;2023-04-05T09:03:00;6.40;50.40
48551;DHT22;34397;51.176;6.738;2023-04-05T09:05:35;6.50;50.30
48551;DHT22;34397;51.176;6.738;2023-04-05T09:08:11;6.50;50.10
48551;DHT22;34397;51.176;6.738;2023-04-05T09:10:44;6.60;50.70
48551;DHT22;34397;51.176;6.738;2023-04-05T09:13:15;6.70;49.80
48551;DHT22;34397;51.176;6.738;2023-04-05T09:15:47;6.70;49.90
48551;DHT22;34397;51.176;6.738;2023-04-05T09:18:19;6.80;49.90
48551;DHT22;34397;51.176;6.738;2023-04-05T09:20:55;6.80;49.80
48551;DHT22;34397;51.176;6.738;2023-04-05T09:23:34;6.90;49.10
48551;DHT22;34397;51.176;6.738;2023-04-05T09:26:19;6.90;48.30
48551;DHT22;34397;51.176;6.738;2023-04-05T09:28:52;7.00;48.60
48551;DHT22;34397;51.176;6.738;2023-04-05T09:31:31;7.10;49.10
48551;DHT22;34397;51.176;6.738;2023-04-05T09:34:04;7.10;47.90
48551;DHT22;34397;51.176;6.738;2023-04-05T09:36:42;7.20;47.80
48551;DHT22;34397;51.176;6.738;2023-04-05T09:39:16;7.30;47.70
48551;DHT22;34397;51.176;6.738;2023-04-05T09:42:04;7.40;47.80
48551;DHT22;34397;51.176;6.738;2023-04-05T09:44:54;7.40;47.00
48551;DHT22;34397;51.176;6.738;2023-04-05T09:47:28;7.50;46.70
48551;DHT22;34397;51.176;6.738;2023-04-05T09:50:04;7.60;47.20
48551;DHT22;34397;51.176;6.738;2023-04-05T09:52:48;7.70;47.40
48551;DHT22;34397;51.176;6.738;2023-04-05T09:55:27;7.70;46.50
48551;DHT22;34397;51.176;6.738;2023-04-05T09:58:00;7.80;46.60
48551;DHT22;34397;51.176;6.738;2023-04-05T10:00:35;7.90;46.20
48551;DHT22;34397;51.176;6.738;2023-04-05T10:03:07;8.00;46.40
48551;DHT22;34397;51.176;6.738;2023-04-05T10:05:39;8.20;46.70
48551;DHT22;34397;51.176;6.738;2023-04-05T10:08:11;8.30;46.70
48551;DHT22;34397;51.176;6.738;2023-04-05T10:10:46;8.60;46.60
48551;DHT22;34397;51.176;6.738;2023-04-05T10:13:18;8.90;47.30
48551;DHT22;34397;51.176;6.738;2023-04-05T10:15:52;9.30;45.90
48551;DHT22;34397;51.176;6.738;2023-04-05T10:18:29;9.90;46.00
48551;DHT22;34397;51.176;6.738;2023-04-05T10:21:10;10.50;44.30
48551;DHT22;34397;51.176;6.738;2023-04-05T10:23:43;11.30;43.20
48551;DHT22;34397;51.176;6.738;2023-04-05T10:26:22;12.00;42.00
48551;DHT22;34397;51.176;6.738;2023-04-05T10:29:08;12.80;39.40
48551;DHT22;34397;51.176;6.738;2023-04-05T10:31:50;13.60;38.40
48551;DHT22;34397;51.176;6.738;2023-04-05T10:34:30;14.30;36.20
48551;DHT22;34397;51.176;6.738;2023-04-05T10:37:07;15.00;35.40
48551;DHT22;34397;51.176;6.738;2023-04-05T10:39:45;15.60;35.70
48551;DHT22;34397;51.176;6.738;2023-04-05T10:42:20;16.20;33.60
48551;DHT22;34397;51.176;6.738;2023-04-05T10:44:58;16.80;32.20
48551;DHT22;34397;51.176;6.738;2023-04-05T10:47:39;17.30;31.80
48551;DHT22;34397;51.176;6.738;2023-04-05T10:50:19;17.80;31.60
48551;DHT22;34397;51.176;6.738;2023-04-05T10:52:52;18.20;30.10
48551;DHT22;34397;51.176;6.738;2023-04-05T10:55:24;18.50;30.30
48551;DHT22;34397;51.176;6.738;2023-04-05T10:57:58;18.90;29.30
48551;DHT22;34397;51.176;6.738;2023-04-05T11:00:30;19.30;28.10
48551;DHT22;34397;51.176;6.738;2023-04-05T11:03:03;19.60;28.30
48551;DHT22;34397;51.176;6.738;2023-04-05T11:05:36;19.90;28.30
48551;DHT22;34397;51.176;6.738;2023-04-05T11:08:10;20.20;28.40
48551;DHT22;34397;51.176;6.738;2023-04-05T11:10:51;20.40;27.40
48551;DHT22;34397;51.176;6.738;2023-04-05T11:13:47;20.80;27.50
48551;DHT22;34397;51.176;6.738;2023-04-05T11:16:19;20.80;27.20
48551;DHT22;34397;51.176;6.738;2023-04-05T11:18:52;21.00;27.40
48551;DHT22;34397;51.176;6.738;2023-04-05T11:21:24;21.10;27.20
48551;DHT22;34397;51.176;6.738;2023-04-05T11:24:02;21.40;27.10
48551;DHT22;34397;51.176;6.738;2023-04-05T11:26:54;21.60;25.60
48551;DHT22;34397;51.176;6.738;2023-04-05T11:29:47;21.80;24.50
48551;DHT22;34397;51.176;6.738;2023-04-05T11:32:37;21.80;26.10
48551;DHT22;34397;51.176;6.738;2023-04-05T11:35:14;21.60;26.60
48551;DHT22;34397;51.176;6.738;2023-04-05T11:38:04;21.30;26.60
48551;DHT22;34397;51.176;6.738;2023-04-05T11:40:38;21.00;26.60
48551;DHT22;34397;51.176;6.738;2023-04-05T11:43:12;20.90;27.00
48551;DHT22;34397;51.176;6.738;2023-04-05T11:45:45;21.00;27.60
48551;DHT22;34397;51.176;6.738;2023-04-05T11:48:21;21.30;27.20
48551;DHT22;34397;51.176;6.738;2023-04-05T11:50:53;21.50;26.50
48551;DHT22;34397;51.176;6.738;2023-04-05T11:53:26;21.80;26.70
48551;DHT22;34397;51.176;6.738;2023-04-05T11:56:06;22.00;25.80
48551;DHT22;34397;51.176;6.738;2023-04-05T11:58:39;22.30;25.20
48551;DHT22;34397;51.176;6.738;2023-04-05T12:01:12;22.50;24.80
48551;DHT22;34397;51.176;6.738;2023-04-05T12:03:52;22.70;26.20
48551;DHT22;34397;51.176;6.738;2023-04-05T12:06:25;22.80;24.30
48551;DHT22;34397;51.176;6.738;2023-04-05T12:08:57;23.00;24.70
48551;DHT22;34397;51.176;6.738;2023-04-05T12:11:29;23.10;24.70
48551;DHT22;34397;51.176;6.738;2023-04-05T12:14:01;23.20;25.20
48551;DHT22;34397;51.176;6.738;2023-04-05T12:16:35;23.40;25.20
48551;DHT22;34397;51.176;6.738;2023-04-05T12:19:06;23.50;25.20
48551;DHT22;34397;51.176;6.738;2023-04-05T12:21:38;23.70;25.20
48551;DHT22;34397;51.176;6.738;2023-04-05T12:24:10;23.80;24.90
48551;DHT22;34397;51.176;6.738;2023-04-05T12:26:43;24.00;25.10
48551;DHT22;34397;51.176;6.738;2023-04-05T12:29:15;24.00;24.00
48551;DHT22;34397;51.176;6.738;2023-04-05T12:31:50;24.00;24.70
48551;DHT22;34397;51.176;6.738;2023-04-05T12:34:23;24.10;24.50
48551;DHT22;34397;51.176;6.738;2023-04-05T12:36:59;24.00;23.60
48551;DHT22;34397;51.176;6.738;2023-04-05T12:39:32;24.00;24.20
48551;DHT22;34397;51.176;6.738;2023-04-05T12:42:04;23.90;24.30
48551;DHT22;34397;51.176;6.738;2023-04-05T12:44:36;24.00;24.40
48551;DHT22;34397;51.176;6.738;2023-04-05T12:47:12;24.00;24.30
48551;DHT22;34397;51.176;6.738;2023-04-05T12:49:47;24.10;23.80
48551;DHT22;34397;51.176;6.738;2023-04-05T12:52:18;24.20;24.30
48551;DHT22;34397;51.176;6.738;2023-04-05T12:55:00;24.20;23.70
48551;DHT22;34397;51.176;6.738;2023-04-05T12:57:32;24.10;23.90
48551;DHT22;34397;51.176;6.738;2023-04-05T13:00:06;24.10;24.10
48551;DHT22;34397;51.176;6.738;2023-04-05T13:02:41;24.10;24.30
48551;DHT22;34397;51.176;6.738;2023-04-05T13:05:13;24.20;24.30
48551;DHT22;34397;51.176;6.738;2023-04-05T13:07:45;24.20;24.10
48551;DHT22;34397;51.176;6.738;2023-04-05T13:10:17;24.20;24.10
48551;DHT22;34397;51.176;6.738;2023-04-05T13:12:50;24.30;24.60
48551;DHT22;34397;51.176;6.738;2023-04-05T13:15:21;24.40;23.30
48551;DHT22;34397;51.176;6.738;2023-04-05T13:17:54;24.50;23.40
48551;DHT22;34397;51.176;6.738;2023-04-05T13:20:26;24.60;23.20
48551;DHT22;34397;51.176;6.738;2023-04-05T13:22:58;24.60;23.20
48551;DHT22;34397;51.176;6.738;2023-04-05T13:25:31;24.50;23.40
48551;DHT22;34397;51.176;6.738;2023-04-05T13:28:03;24.50;23.40
48551;DHT22;34397;51.176;6.738;2023-04-05T13:30:35;24.50;23.90
48551;DHT22;34397;51.176;6.738;2023-04-05T13:33:08;24.60;24.40
48551;DHT22;34397;51.176;6.738;2023-04-05T13:35:40;24.60;23.90
48551;DHT22;34397;51.176;6.738;2023-04-05T13:38:12;24.50;24.00
48551;DHT22;34397;51.176;6.738;2023-04-05T13:40:44;24.50;24.10
48551;DHT22;34397;51.176;6.738;2023-04-05T13:43:17;24.60;24.10
48551;DHT22;34397;51.176;6.738;2023-04-05T13:45:53;24.60;23.80
48551;DHT22;34397;51.176;6.738;2023-04-05T13:52:08;24.70;23.80
48551;DHT22;34397;51.176;6.738;2023-04-05T13:54:49;24.80;24.00
48551;DHT22;34397;51.176;6.738;2023-04-05T13:57:22;24.80;23.50
48551;DHT22;34397;51.176;6.738;2023-04-05T13:59:54;24.80;23.80
48551;DHT22;34397;51.176;6.738;2023-04-05T14:02:26;24.80;23.60
48551;DHT22;34397;51.176;6.738;2023-04-05T14:05:01;24.80;24.00
48551;DHT22;34397;51.176;6.738;2023-04-05T14:10:30;24.80;23.50
48551;DHT22;34397;51.176;6.738;2023-04-05T14:13:03;24.80;22.90
48551;DHT22;34397;51.176;6.738;2023-04-05T14:15:35;24.80;23.20
48551;DHT22;34397;51.176;6.738;2023-04-05T14:18:08;24.70;22.80
48551;DHT22;34397;51.176;6.738;2023-04-05T14:20:41;24.60;22.80
48551;DHT22;34397;51.176;6.738;2023-04-05T14:23:14;24.60;23.00
48551;DHT22;34397;51.176;6.738;2023-04-05T14:25:46;24.50;22.20
48551;DHT22;34397;51.176;6.738;2023-04-05T14:28:19;24.50;22.10
48551;DHT22;34397;51.176;6.738;2023-04-05T14:30:51;24.40;23.00
48551;DHT22;34397;51.176;6.738;2023-04-05T14:33:28;24.40;23.00
48551;DHT22;34397;51.176;6.738;2023-04-05T14:36:00;24.40;23.00
48551;DHT22;34397;51.176;6.738;2023-04-05T14:38:33;24.30;22.60
48551;DHT22;34397;51.176;6.738;2023-04-05T14:41:08;24.20;22.80
48551;DHT22;34397;51.176;6.738;2023-04-05T14:43:42;24.20;22.50
48551;DHT22;34397;51.176;6.738;2023-04-05T14:46:15;24.10;22.90
48551;DHT22;34397;51.176;6.738;2023-04-05T14:48:47;24.00;22.70
48551;DHT22;34397;51.176;6.738;2023-04-05T14:51:19;24.00;23.30
48551;DHT22;34397;51.176;6.738;2023-04-05T14:53:59;23.90;23.30
48551;DHT22;34397;51.176;6.738;2023-04-05T14:56:38;23.70;23.30
48551;DHT22;34397;51.176;6.738;2023-04-05T14:59:10;23.60;23.50
48551;DHT22;34397;51.176;6.738;2023-04-05T15:01:42;23.40;23.50
48551;DHT22;34397;51.176;6.738;2023-04-05T15:04:14;23.30;24.00
48551;DHT22;34397;51.176;6.738;2023-04-05T15:06:46;23.30;23.80
48551;DHT22;34397;51.176;6.738;2023-04-05T15:09:20;23.20;23.80
48551;DHT22;34397;51.176;6.738;2023-04-05T15:11:56;23.00;23.60
48551;DHT22;34397;51.176;6.738;2023-04-05T15:14:29;22.80;23.50
48551;DHT22;34397;51.176;6.738;2023-04-05T15:17:01;22.70;23.60
48551;DHT22;34397;51.176;6.738;2023-04-05T15:19:32;22.60;23.30
48551;DHT22;34397;51.176;6.738;2023-04-05T15:22:05;22.30;23.40
48551;DHT22;34397;51.176;6.738;2023-04-05T15:24:39;22.20;23.80
48551;DHT22;34397;51.176;6.738;2023-04-05T15:27:11;22.00;23.80
48551;DHT22;34397;51.176;6.738;2023-04-05T15:29:43;21.90;24.30
48551;DHT22;34397;51.176;6.738;2023-04-05T15:32:18;21.70;24.50
48551;DHT22;34397;51.176;6.738;2023-04-05T15:34:49;21.40;24.40
48551;DHT22;34397;51.176;6.738;2023-04-05T15:37:21;21.20;24.30
48551;DHT22;34397;51.176;6.738;2023-04-05T15:39:54;21.00;24.30
48551;DHT22;34397;51.176;6.738;2023-04-05T15:42:34;20.80;23.90
48551;DHT22;34397;51.176;6.738;2023-04-05T15:45:08;20.60;24.60
48551;DHT22;34397;51.176;6.738;2023-04-05T15:47:40;20.40;24.90
48551;DHT22;34397;51.176;6.738;2023-04-05T15:50:12;20.30;25.40
48551;DHT22;34397;51.176;6.738;2023-04-05T15:52:44;20.10;25.10
48551;DHT22;34397;51.176;6.738;2023-04-05T15:55:21;19.90;24.30
48551;DHT22;34397;51.176;6.738;2023-04-05T15:57:52;19.70;24.20
48551;DHT22;34397;51.176;6.738;2023-04-05T16:00:26;19.50;24.50
48551;DHT22;34397;51.176;6.738;2023-04-05T16:02:58;19.30;24.30
48551;DHT22;34397;51.176;6.738;2023-04-05T16:05:30;19.20;24.20
48551;DHT22;34397;51.176;6.738;2023-04-05T16:08:01;19.00;25.20
48551;DHT22;34397;51.176;6.738;2023-04-05T16:10:35;18.90;25.60
48551;DHT22;34397;51.176;6.738;2023-04-05T16:13:06;18.70;25.20
48551;DHT22;34397;51.176;6.738;2023-04-05T16:15:38;18.60;25.90
48551;DHT22;34397;51.176;6.738;2023-04-05T16:18:10;18.50;26.10
48551;DHT22;34397;51.176;6.738;2023-04-05T16:20:44;18.30;26.70
48551;DHT22;34397;51.176;6.738;2023-04-05T16:23:15;18.10;26.20
48551;DHT22;34397;51.176;6.738;2023-04-05T16:25:49;17.90;25.50
48551;DHT22;34397;51.176;6.738;2023-04-05T16:28:20;17.80;26.00
48551;DHT22;34397;51.176;6.738;2023-04-05T16:30:52;17.60;25.30